createdAt,value
2022-10-05T00:01:33.499Z,99.90
2022-10-05T00:04:24.292Z,99.90
2022-10-05T00:07:08.127Z,99.90
2022-10-05T00:09:35.733Z,99.90
2022-10-05T00:12:22.045Z,99.90
2022-10-05T00:14:55.689Z,99.90
2022-10-05T00:17:30.133Z,99.90
2022-10-05T00:19:57.185Z,99.90
2022-10-05T00:22:33.825Z,99.90
2022-10-05T00:25:10.937Z,99.90
2022-10-05T00:27:38.821Z,99.90
2022-10-05T00:30:20.176Z,99.90
2022-10-05T00:32:48.013Z,99.90
2022-10-05T00:35:19.009Z,99.90
2022-10-05T00:37:53.409Z,99.90
2022-10-05T00:40:59.577Z,99.90
2022-10-05T00:44:03.035Z,99.90
2022-10-05T00:46:59.694Z,99.90
2022-10-05T00:50:08.906Z,99.90
2022-10-05T00:52:48.750Z,99.90
2022-10-05T00:56:05.646Z,99.90
2022-10-05T00:59:29.774Z,99.90
2022-10-05T01:02:20.576Z,99.90
2022-10-05T01:06:03.822Z,99.90
2022-10-05T01:08:58.386Z,99.90
2022-10-05T01:11:48.034Z,99.90
2022-10-05T01:15:05.173Z,99.90
2022-10-05T01:17:48.243Z,99.90
2022-10-05T01:21:04.638Z,99.90
2022-10-05T01:24:24.203Z,99.90
2022-10-05T01:27:38.723Z,99.90
2022-10-05T01:30:21.879Z,99.90
2022-10-05T01:33:22.655Z,99.90
2022-10-05T01:36:43.007Z,99.90
2022-10-05T01:39:49.370Z,99.90
2022-10-05T01:43:08.374Z,99.90
2022-10-05T01:46:36.006Z,99.90
2022-10-05T01:49:47.659Z,99.90
2022-10-05T01:52:48.131Z,99.90
2022-10-05T01:55:48.607Z,99.90
2022-10-05T01:59:24.131Z,99.90
2022-10-05T02:02:04.282Z,99.90
2022-10-05T02:05:10.675Z,99.90
2022-10-05T02:07:59.715Z,99.90
2022-10-05T02:10:55.794Z,99.90
2022-10-05T02:13:55.459Z,99.90
2022-10-05T02:16:47.253Z,99.90
2022-10-05T02:19:46.343Z,99.90
2022-10-05T02:22:44.787Z,99.90
2022-10-05T02:25:21.252Z,99.90
2022-10-05T02:28:07.901Z,99.90
2022-10-05T02:30:47.176Z,99.90
2022-10-05T02:33:31.511Z,99.90
2022-10-05T02:36:23.309Z,99.90
2022-10-05T02:39:32.728Z,99.90
2022-10-05T02:42:55.539Z,99.90
2022-10-05T02:45:52.505Z,99.90
2022-10-05T02:49:12.208Z,99.90
2022-10-05T02:52:12.845Z,99.90
2022-10-05T02:55:10.366Z,99.90
2022-10-05T02:58:04.501Z,99.90
2022-10-05T03:01:15.266Z,99.90
2022-10-05T03:04:36.157Z,99.90
2022-10-05T03:07:23.337Z,99.90
2022-10-05T03:10:06.553Z,99.90
2022-10-05T03:13:32.337Z,99.90
2022-10-05T03:16:38.211Z,99.90
2022-10-05T03:19:55.640Z,99.90
2022-10-05T03:23:06.858Z,99.90
2022-10-05T03:26:21.822Z,99.90
2022-10-05T03:29:08.277Z,99.90
2022-10-05T03:31:56.081Z,99.90
2022-10-05T03:34:48.450Z,99.90
2022-10-05T03:38:02.637Z,99.90
2022-10-05T03:40:59.481Z,99.90
2022-10-05T03:44:04.045Z,99.90
2022-10-05T03:47:05.205Z,99.90
2022-10-05T03:49:48.021Z,99.90
2022-10-05T03:52:38.718Z,99.90
2022-10-05T03:55:39.279Z,99.90
2022-10-05T03:58:21.898Z,99.90
2022-10-05T04:00:58.885Z,99.90
2022-10-05T04:03:54.809Z,99.90
2022-10-05T04:06:30.330Z,99.90
2022-10-05T04:09:41.889Z,99.90
2022-10-05T04:12:40.013Z,99.90
2022-10-05T04:15:29.262Z,99.90
2022-10-05T04:18:13.615Z,99.90
2022-10-05T04:20:53.562Z,99.90
2022-10-05T04:23:40.298Z,99.90
2022-10-05T04:26:18.499Z,99.90
2022-10-05T04:29:41.734Z,99.90
2022-10-05T04:32:43.968Z,99.90
2022-10-05T04:35:34.005Z,99.90
2022-10-05T04:38:26.285Z,99.90
2022-10-05T04:41:26.051Z,99.90
2022-10-05T04:44:17.055Z,99.90
2022-10-05T04:47:17.633Z,99.90
2022-10-05T04:50:24.378Z,99.90
2022-10-05T04:53:24.679Z,99.90
2022-10-05T04:56:22.880Z,99.90
2022-10-05T04:59:45.048Z,99.90
2022-10-05T05:02:50.259Z,99.90
2022-10-05T05:05:31.867Z,99.90
2022-10-05T05:08:57.916Z,99.90
2022-10-05T05:12:18.843Z,99.90
2022-10-05T05:15:09.935Z,99.90
2022-10-05T05:18:38.291Z,99.90
2022-10-05T05:21:34.297Z,99.90
2022-10-05T05:24:50.453Z,99.90
2022-10-05T05:27:53.491Z,99.90
2022-10-05T05:30:41.275Z,99.90
2022-10-05T05:33:50.823Z,99.90
2022-10-05T05:36:59.548Z,99.90
2022-10-05T05:39:38.906Z,99.90
2022-10-05T05:42:46.562Z,99.90
2022-10-05T05:46:02.840Z,99.90
2022-10-05T05:48:43.549Z,99.90
2022-10-05T05:51:19.062Z,99.90
2022-10-05T05:53:57.952Z,99.90
2022-10-05T05:56:40.013Z,99.90
2022-10-05T05:59:41.029Z,99.90
2022-10-05T06:02:20.238Z,99.90
2022-10-05T06:05:02.698Z,99.90
2022-10-05T06:07:31.789Z,99.90
2022-10-05T06:10:41.381Z,99.90
2022-10-05T06:13:34.000Z,99.90
2022-10-05T06:16:31.260Z,99.90
2022-10-05T06:19:12.945Z,99.90
2022-10-05T06:21:51.265Z,99.90
2022-10-05T06:24:36.341Z,99.90
2022-10-05T06:27:24.385Z,99.90
2022-10-05T06:30:16.821Z,99.90
2022-10-05T06:33:18.493Z,99.90
2022-10-05T06:36:17.502Z,99.90
2022-10-05T06:39:29.386Z,99.90
2022-10-05T06:42:27.909Z,99.90
2022-10-05T06:45:24.721Z,99.90
2022-10-05T06:48:10.773Z,99.90
2022-10-05T06:50:49.861Z,99.90
2022-10-05T06:53:43.198Z,99.90
2022-10-05T06:56:32.081Z,99.90
2022-10-05T06:59:33.073Z,99.90
2022-10-05T07:02:42.063Z,99.90
2022-10-05T07:05:31.559Z,99.90
2022-10-05T07:08:10.569Z,99.90
2022-10-05T07:11:25.373Z,99.90
2022-10-05T07:14:11.911Z,99.90
2022-10-05T07:17:19.647Z,99.90
2022-10-05T07:20:29.210Z,99.90
2022-10-05T07:23:29.414Z,99.90
2022-10-05T07:26:30.246Z,99.90
2022-10-05T07:29:43.217Z,99.90
2022-10-05T07:32:50.195Z,99.90
2022-10-05T07:36:17.786Z,99.90
2022-10-05T07:39:01.130Z,99.90
2022-10-05T07:42:04.382Z,99.90
2022-10-05T07:44:48.153Z,99.90
2022-10-05T07:47:49.581Z,99.90
2022-10-05T07:50:29.954Z,99.90
2022-10-05T07:53:15.387Z,99.90
2022-10-05T07:55:54.475Z,99.90
2022-10-05T07:58:47.988Z,99.90
2022-10-05T08:14:25.416Z,99.90
2022-10-05T08:16:59.648Z,99.90
2022-10-05T08:19:43.332Z,99.90
2022-10-05T08:22:25.303Z,99.90
2022-10-05T08:25:19.160Z,99.90
2022-10-05T08:28:17.519Z,99.90
2022-10-05T08:31:08.243Z,99.70
2022-10-05T08:34:20.928Z,97.40
2022-10-05T08:37:08.555Z,96.20
2022-10-05T08:39:50.332Z,95.00
2022-10-05T08:43:16.013Z,92.60
2022-10-05T08:46:21.967Z,92.40
2022-10-05T08:49:36.029Z,91.90
2022-10-05T08:52:30.051Z,90.10
2022-10-05T08:55:10.025Z,87.90
2022-10-05T08:58:33.645Z,84.90
2022-10-05T09:01:25.974Z,82.60
2022-10-05T09:04:48.991Z,82.60
2022-10-05T09:07:43.847Z,82.30
2022-10-05T09:10:52.277Z,82.00
2022-10-05T09:13:59.172Z,82.40
2022-10-05T09:17:25.617Z,80.60
2022-10-05T09:20:37.988Z,81.30
2022-10-05T09:23:40.572Z,79.90
2022-10-05T09:26:59.917Z,79.30
2022-10-05T09:29:57.188Z,79.50
2022-10-05T09:33:23.497Z,79.40
2022-10-05T09:36:31.765Z,78.00
2022-10-05T09:39:44.554Z,77.20
2022-10-05T09:43:01.521Z,78.30
2022-10-05T09:45:55.263Z,75.20
2022-10-05T09:48:53.616Z,75.30
2022-10-05T09:52:09.213Z,73.60
2022-10-05T09:55:13.998Z,73.50
2022-10-05T09:58:49.554Z,73.50
2022-10-05T10:01:40.186Z,74.80
2022-10-05T10:05:05.615Z,75.00
2022-10-05T10:08:21.585Z,74.20
2022-10-05T10:11:29.757Z,75.70
2022-10-05T10:14:24.776Z,75.40
2022-10-05T10:17:44.182Z,76.00
2022-10-05T10:21:09.447Z,73.30
2022-10-05T10:24:19.257Z,73.60
2022-10-05T10:27:52.346Z,73.50
2022-10-05T10:30:55.846Z,73.60
2022-10-05T10:34:06.682Z,71.60
2022-10-05T10:37:07.174Z,72.90
2022-10-05T10:40:42.922Z,73.20
2022-10-05T10:44:33.578Z,72.80
2022-10-05T10:47:51.797Z,74.00
2022-10-05T10:51:17.298Z,73.00
2022-10-05T10:54:55.695Z,72.00
2022-10-05T10:57:30.235Z,71.50
2022-10-05T11:00:22.191Z,73.60
2022-10-05T11:03:42.525Z,73.20
2022-10-05T11:06:27.754Z,73.90
2022-10-05T11:09:12.999Z,73.40
2022-10-05T11:12:09.900Z,73.40
2022-10-05T11:15:04.767Z,73.60
2022-10-05T11:18:15.579Z,73.70
2022-10-05T11:21:04.338Z,71.90
2022-10-05T11:24:27.703Z,70.40
2022-10-05T11:27:50.906Z,68.50
2022-10-05T11:31:16.018Z,68.40
2022-10-05T11:34:40.532Z,66.70
2022-10-05T11:37:38.148Z,65.00
2022-10-05T11:40:52.361Z,65.00
2022-10-05T11:44:06.355Z,64.00
2022-10-05T11:46:52.091Z,66.10
2022-10-05T11:49:59.197Z,67.40
2022-10-05T11:53:06.139Z,65.70
2022-10-05T11:55:50.220Z,65.50
2022-10-05T11:58:42.043Z,66.60
2022-10-05T12:02:02.207Z,68.20
2022-10-05T12:05:16.356Z,67.90
2022-10-05T12:07:58.496Z,69.30
2022-10-05T12:11:07.826Z,67.50
2022-10-05T12:14:02.393Z,67.30
2022-10-05T12:17:00.919Z,65.90
2022-10-05T12:19:46.039Z,65.50
2022-10-05T12:22:28.140Z,64.40
2022-10-05T12:25:45.588Z,63.30
2022-10-05T12:28:33.093Z,63.00
2022-10-05T12:31:12.460Z,63.60
2022-10-05T12:34:37.320Z,65.30
2022-10-05T12:38:11.288Z,64.80
2022-10-05T12:40:52.184Z,66.20
2022-10-05T12:44:33.604Z,69.00
2022-10-05T12:47:53.897Z,68.90
2022-10-05T12:50:32.629Z,70.10
2022-10-05T12:53:42.029Z,69.50
2022-10-05T12:56:44.541Z,69.90
2022-10-05T12:59:42.157Z,68.00
2022-10-05T13:02:36.219Z,68.00
2022-10-05T13:05:09.396Z,68.70
2022-10-05T13:08:45.082Z,68.20
2022-10-05T13:11:39.262Z,69.10
2022-10-05T13:14:45.677Z,69.10
2022-10-05T13:17:54.614Z,70.40
2022-10-05T13:20:39.582Z,70.50
2022-10-05T13:23:40.225Z,71.10
2022-10-05T13:26:40.773Z,71.00
2022-10-05T13:29:32.998Z,72.10
2022-10-05T13:32:19.202Z,71.70
2022-10-05T13:35:36.655Z,71.60
2022-10-05T13:38:24.433Z,72.60
2022-10-05T13:41:48.602Z,72.10
2022-10-05T13:44:54.633Z,71.90
2022-10-05T13:47:45.420Z,72.90
2022-10-05T13:50:31.180Z,71.80
2022-10-05T13:53:23.727Z,70.60
2022-10-05T13:56:28.723Z,71.40
2022-10-05T13:59:30.374Z,70.50
2022-10-05T14:02:12.188Z,71.40
2022-10-05T14:04:58.358Z,70.40
2022-10-05T14:07:55.302Z,71.90
2022-10-05T14:10:40.843Z,72.50
2022-10-05T14:13:47.211Z,72.80
2022-10-05T14:16:16.879Z,73.90
2022-10-05T14:19:05.720Z,73.10
2022-10-05T14:22:02.607Z,73.80
2022-10-05T14:24:46.373Z,74.10
2022-10-05T14:27:30.209Z,73.60
2022-10-05T14:30:08.488Z,74.00
2022-10-05T14:33:02.803Z,72.50
2022-10-05T14:35:56.554Z,72.80
2022-10-05T14:38:53.016Z,72.80
2022-10-05T14:41:27.175Z,73.40
2022-10-05T14:43:59.616Z,73.00
2022-10-05T14:46:34.596Z,73.50
2022-10-05T14:49:29.174Z,73.20
2022-10-05T14:51:58.407Z,74.10
2022-10-05T14:55:00.173Z,73.50
2022-10-05T14:57:58.339Z,73.80
2022-10-05T15:00:25.985Z,73.80
2022-10-05T15:03:09.048Z,73.70
2022-10-05T15:05:52.199Z,74.70
2022-10-05T15:08:56.499Z,74.60
2022-10-05T15:11:46.892Z,74.50
2022-10-05T15:14:41.721Z,75.70
2022-10-05T15:17:33.472Z,76.10
2022-10-05T15:20:43.226Z,78.30
2022-10-05T15:23:47.382Z,79.90
2022-10-05T15:26:52.454Z,80.40
2022-10-05T15:30:03.118Z,81.60
2022-10-05T15:33:05.139Z,81.80
2022-10-05T15:36:09.648Z,82.90
2022-10-05T15:39:26.776Z,83.80
2022-10-05T15:42:10.960Z,85.20
2022-10-05T15:45:29.949Z,86.40
2022-10-05T15:48:04.728Z,87.80
2022-10-05T15:51:16.408Z,88.50
2022-10-05T15:54:31.520Z,89.70
2022-10-05T15:57:57.332Z,90.40
2022-10-05T16:00:27.540Z,91.00
2022-10-05T16:03:30.752Z,91.50
2022-10-05T16:06:42.442Z,92.00
2022-10-05T16:09:42.377Z,92.30
2022-10-05T16:12:09.671Z,92.70
2022-10-05T16:14:45.649Z,92.90
2022-10-05T16:17:47.794Z,92.90
2022-10-05T16:20:52.053Z,92.90
2022-10-05T16:23:55.089Z,92.60
2022-10-05T16:26:47.092Z,92.90
2022-10-05T16:29:50.517Z,93.50
2022-10-05T16:33:18.788Z,93.80
2022-10-05T16:36:04.520Z,94.40
2022-10-05T16:39:37.969Z,94.90
2022-10-05T16:43:10.497Z,95.50
2022-10-05T16:46:27.662Z,95.90
2022-10-05T16:49:46.759Z,96.40
2022-10-05T16:52:21.633Z,96.70
2022-10-05T16:55:23.095Z,97.20
2022-10-05T16:57:56.770Z,97.50
2022-10-05T17:00:34.633Z,98.00
2022-10-05T17:03:25.958Z,98.20
2022-10-05T17:06:46.200Z,98.70
2022-10-05T17:09:44.854Z,99.40
2022-10-05T17:13:19.542Z,99.90
2022-10-05T17:16:33.086Z,99.90
2022-10-05T17:19:43.506Z,99.90
2022-10-05T17:22:39.467Z,99.90
2022-10-05T17:25:43.274Z,99.90
2022-10-05T17:28:57.419Z,99.90
2022-10-05T17:31:28.614Z,99.90
2022-10-05T17:34:17.874Z,99.90
2022-10-05T17:36:54.059Z,99.90
2022-10-05T17:39:49.642Z,99.90
2022-10-05T17:42:39.416Z,99.90
2022-10-05T17:45:12.079Z,99.90
2022-10-05T17:48:03.970Z,99.90
2022-10-05T17:51:01.075Z,99.90
2022-10-05T17:54:08.403Z,99.90
2022-10-05T17:56:47.724Z,99.90
2022-10-05T17:59:46.145Z,99.90
2022-10-05T18:02:40.601Z,99.90
2022-10-05T18:05:15.051Z,99.90
2022-10-05T18:07:48.645Z,99.90
2022-10-05T18:10:29.785Z,99.90
2022-10-05T18:12:59.465Z,99.90
2022-10-05T18:15:26.319Z,99.90
2022-10-05T18:18:39.635Z,99.90
2022-10-05T18:21:32.691Z,99.90
2022-10-05T18:23:59.611Z,99.90
2022-10-05T18:27:10.795Z,99.90
2022-10-05T18:30:02.334Z,99.90
2022-10-05T18:33:08.727Z,99.90
2022-10-05T18:36:24.203Z,99.90
2022-10-05T18:39:36.150Z,99.90
2022-10-05T18:43:32.164Z,99.90
2022-10-05T18:46:21.868Z,99.90
2022-10-05T18:49:31.581Z,99.90
2022-10-05T18:52:57.872Z,99.90
2022-10-05T18:55:44.609Z,99.90
2022-10-05T18:58:50.193Z,99.90
2022-10-05T19:01:55.666Z,99.90
2022-10-05T19:04:51.596Z,99.90
2022-10-05T19:07:59.161Z,99.90
2022-10-05T19:10:44.924Z,99.90
2022-10-05T19:13:55.808Z,99.90
2022-10-05T19:16:53.129Z,99.90
2022-10-05T19:20:21.088Z,99.90
2022-10-05T19:23:26.978Z,99.90
2022-10-05T19:26:38.704Z,99.90
2022-10-05T19:30:19.157Z,99.90
2022-10-05T19:33:33.618Z,99.90
2022-10-05T19:36:26.321Z,99.90
2022-10-05T19:39:36.083Z,99.90
2022-10-05T19:42:46.991Z,99.90
2022-10-05T19:45:26.593Z,99.90
2022-10-05T19:48:19.996Z,99.90
2022-10-05T19:51:01.762Z,99.90
2022-10-05T19:53:45.637Z,99.90
2022-10-05T19:56:33.580Z,99.90
2022-10-05T19:59:20.103Z,99.90
2022-10-05T20:01:56.072Z,99.90
2022-10-05T20:04:49.885Z,99.90
2022-10-05T20:07:22.889Z,99.90
2022-10-05T20:10:18.482Z,99.90
2022-10-05T20:13:03.057Z,99.90
2022-10-05T20:15:54.717Z,99.90
2022-10-05T20:19:08.050Z,99.90
2022-10-05T20:21:58.622Z,99.90
2022-10-05T20:24:31.968Z,99.90
2022-10-05T20:27:05.850Z,99.90
2022-10-05T20:29:43.054Z,99.90
2022-10-05T20:32:20.066Z,99.90
2022-10-05T20:34:49.263Z,99.90
2022-10-05T20:37:18.917Z,99.90
2022-10-05T20:39:47.138Z,99.90
2022-10-05T20:42:14.442Z,99.90
2022-10-05T20:44:41.327Z,99.90
2022-10-05T20:47:10.894Z,99.90
2022-10-05T20:49:44.315Z,99.90
2022-10-05T20:52:14.942Z,99.90
2022-10-05T20:54:42.799Z,99.90
2022-10-05T20:57:10.144Z,99.90
2022-10-05T20:59:37.335Z,99.90
2022-10-05T21:02:05.871Z,99.90
2022-10-05T21:04:40.017Z,99.90
2022-10-05T21:07:08.697Z,99.90
2022-10-05T21:09:38.163Z,99.90
2022-10-05T21:12:05.108Z,99.90
2022-10-05T21:14:34.106Z,99.90
2022-10-05T21:17:01.788Z,99.90
2022-10-05T21:19:29.703Z,99.90
2022-10-05T21:21:59.432Z,99.90
2022-10-05T21:24:26.362Z,99.90
2022-10-05T21:26:57.391Z,99.90
2022-10-05T21:29:24.396Z,99.90
2022-10-05T21:31:51.401Z,99.90
2022-10-05T21:34:19.341Z,99.90
2022-10-05T21:36:46.195Z,99.90
2022-10-05T21:39:13.040Z,99.90
2022-10-05T21:41:39.881Z,99.90
2022-10-05T21:44:06.872Z,99.90
2022-10-05T21:46:37.849Z,99.90
2022-10-05T21:49:07.692Z,99.90
2022-10-05T21:51:37.750Z,99.90
2022-10-05T21:54:15.280Z,99.90
2022-10-05T21:56:50.103Z,99.90
2022-10-05T21:59:23.580Z,99.90
2022-10-05T22:01:50.478Z,99.90
2022-10-05T22:04:17.376Z,99.90
2022-10-05T22:06:44.294Z,99.90
2022-10-05T22:09:11.997Z,99.90
2022-10-05T22:11:39.052Z,99.90
2022-10-05T22:14:05.916Z,99.90
2022-10-05T22:16:40.028Z,99.90
2022-10-05T22:19:18.433Z,99.90
2022-10-05T22:21:45.356Z,99.90
2022-10-05T22:24:12.262Z,99.90
2022-10-05T22:26:43.473Z,99.90
2022-10-05T22:29:10.526Z,99.90
2022-10-05T22:31:39.070Z,99.90
2022-10-05T22:34:06.092Z,99.90
2022-10-05T22:36:35.864Z,99.90
2022-10-05T22:39:03.525Z,99.90
2022-10-05T22:41:30.398Z,99.90
2022-10-05T22:43:57.312Z,99.90
2022-10-05T22:46:24.305Z,99.90
2022-10-05T22:48:51.429Z,99.90
2022-10-05T22:51:18.454Z,99.90
2022-10-05T22:53:45.376Z,99.90
2022-10-05T22:56:14.489Z,99.90
2022-10-05T22:58:44.193Z,99.90
2022-10-05T23:01:16.208Z,99.90
2022-10-05T23:03:44.436Z,99.90
2022-10-05T23:06:19.805Z,99.90
2022-10-05T23:08:47.475Z,99.90
2022-10-05T23:11:21.789Z,99.90
2022-10-05T23:13:58.570Z,99.90
2022-10-05T23:16:28.211Z,99.90
2022-10-05T23:18:57.090Z,99.90
2022-10-05T23:21:28.561Z,99.90
2022-10-05T23:23:55.726Z,99.90
2022-10-05T23:26:25.840Z,99.90
2022-10-05T23:28:53.675Z,99.90
2022-10-05T23:31:29.733Z,99.90
2022-10-05T23:33:56.913Z,99.90
2022-10-05T23:36:32.708Z,99.90
2022-10-05T23:39:00.158Z,99.90
2022-10-05T23:41:27.375Z,99.90
2022-10-05T23:43:55.099Z,99.90
2022-10-05T23:46:22.806Z,99.90
2022-10-05T23:48:50.232Z,99.90
2022-10-05T23:51:17.403Z,99.90
2022-10-05T23:53:44.880Z,99.90
2022-10-05T23:56:12.859Z,99.90
2022-10-05T23:58:40.965Z,99.90
